Latest Weather Observations for Marble Bar

IDW60801

Issued at 6:02 pm WST Sunday 25 January 2015 (issued every 30 minutes, with the page automatically refreshed every 10 minutes)

About weather observations | Map of weather stations | Latest weather observations for WA | Other Formats
Station Details ID: 004106 Name: MARBLE BAR Lat: -21.18 Lon: 119.75 Height: 182.3 m
Data from the previous 72 hours. | See also: Recent months at Marble Bar
Date/Time
WST
Temp
°C
App
Temp
°C
Dew
Point
Rel
Hum
%
Delta-T
°C
Wind Press
QNH
hPa
Press
MSL
hPa
Rain
since 9 am
mm
Dir
 
Spd
km/h
Gust
km/h
Spd
kts
Gust
kts
25/06:00pm 34.2 34.4 20.6 45 9.2 NW 20 33 11 18 1007.2 1005.6 0.0
25/05:30pm 35.0 34.8 19.8 41 10.2 NW 20 32 11 17 1006.5 1004.9 0.0
25/05:00pm 35.7 34.9 19.2 38 11.0 NW 22 33 12 18 1005.7 1004.2 0.0
25/04:30pm 37.2 36.4 19.2 35 12.0 NNW 22 37 12 20 1005.3 1003.7 0.0
25/04:00pm 37.3 36.5 19.3 35 12.1 NNW 22 33 12 18 1005.6 1004.1 0.0
25/03:30pm 37.2 36.4 19.2 35 12.0 NNW 22 30 12 16 1006.4 1004.8 0.0
25/03:00pm 37.3 36.1 18.3 32 12.6 NNW 22 35 12 19 1006.9 1005.3 0.0
25/02:30pm 36.9 36.1 18.4 33 12.2 NW 20 37 11 20 1007.2 1005.6 0.0
25/02:00pm 37.4 36.4 17.9 31 12.8 NNW 20 33 11 18 1007.5 1005.9 0.0
25/01:30pm 37.4 36.9 16.9 30 13.3 NNW 15 26 8 14 1007.6 1006.0 0.0
25/01:00pm 36.4 35.6 18.0 33 12.1 N 19 30 10 16 1008.1 1006.5 0.0
25/12:30pm 35.8 34.8 18.8 36 11.3 N 22 28 12 15 1008.2 1006.6 0.0
25/12:00pm 36.4 35.3 19.4 37 11.4 N 24 35 13 19 1008.4 1006.8 0.0
25/11:30am 37.3 36.4 20.6 37 11.4 N 26 37 14 20 1009.0 1007.4 0.0
25/11:00am 36.6 35.8 20.8 39 10.8 N 26 46 14 25 1009.6 1008.0 0.0
25/10:30am 35.5 35.5 21.7 44 9.5 N 24 39 13 21 1010.1 1008.5 0.0
25/10:00am 34.3 33.5 21.7 47 8.6 N 28 41 15 22 1010.3 1008.7 0.0
25/09:30am 33.8 33.2 22.6 52 7.7 N 30 39 16 21 1010.7 1009.2 0.0
25/09:00am 32.3 31.5 23.0 58 6.4 NNE 32 46 17 25 1010.6 1009.1 0.2
25/08:30am 32.9 33.7 23.2 56 6.8 NNE 24 35 13 19 1010.7 1009.2 0.2
25/08:00am 31.4 32.6 23.2 61 5.7 NNE 22 32 12 17 1010.5 1008.9 0.2
25/07:30am 29.4 30.2 23.8 72 3.9 NNE 26 37 14 20 1010.4 1008.8 0.2
25/07:00am 29.2 30.4 24.5 76 3.3 NNE 26 35 14 19 1009.7 1008.1 0.2
25/06:30am 28.6 32.3 24.6 79 2.8 NE 13 22 7 12 1009.3 1007.7 0.2
25/06:00am 28.0 31.8 24.0 79 2.8 NE 11 17 6 9 1008.8 1007.2 0.2
25/05:30am 28.2 30.8 23.3 75 3.4 NE 15 24 8 13 1008.0 1006.4 0.2
25/05:00am 28.9 31.4 21.7 65 4.9 N 11 19 6 10 1006.6 1005.0 0.2
25/04:30am 29.3 31.3 19.9 57 6.2 N 9 13 5 7 1006.3 1004.7 0.2
25/04:00am 29.9 32.1 19.3 53 7.0 N 6 9 3 5 1005.9 1004.4 0.2
25/03:30am 30.3 32.2 19.0 50 7.4 N 7 11 4 6 1005.9 1004.4 0.2
25/03:00am 30.3 32.3 18.7 50 7.6 NE 6 7 3 4 1005.8 1004.3 0.2
25/02:30am 30.9 32.3 18.6 48 8.0 N 9 17 5 9 1005.3 1003.7 0.2
25/02:00am 30.9 32.3 18.6 48 8.0 NNW 9 13 5 7 1005.2 1003.6 0.2
25/01:30am 31.1 32.4 18.5 47 8.2 NW 9 15 5 8 1005.1 1003.5 0.2
25/01:00am 31.2 31.9 18.9 48 8.1 NW 13 20 7 11 1005.1 1003.5 0.2
25/12:30am 31.4 32.6 19.1 48 8.1 WNW 11 15 6 8 1005.4 1003.8 0.2
25/12:00am 31.6 33.0 19.6 49 8.0 NW 11 17 6 9 1006.0 1004.5 0.2
 
Date/Time
WST
Temp
°C
App
Temp
°C
Dew
Point
Rel
Hum
%
Delta-T
°C
Wind Press
QNH
hPa
Press
MSL
hPa
Rain
since 9 am
mm
Dir
 
Spd
km/h
Gust
km/h
Spd
kts
Gust
kts
24/11:30pm 31.4 33.2 20.4 52 7.4 NW 11 15 6 8 1006.3 1004.7 0.2
24/11:00pm 31.5 33.5 20.8 53 7.2 NNW 11 15 6 8 1006.1 1004.6 0.2
24/10:30pm 31.7 32.8 21.2 53 7.1 NNW 17 28 9 15 1006.3 1004.7 0.2
24/10:00pm 32.1 33.3 22.2 56 6.8 NW 19 26 10 14 1006.4 1004.8 0.2
24/09:30pm 32.9 34.8 22.0 52 7.5 WNW 15 24 8 13 1006.6 1005.0 0.2
24/09:00pm 33.7 34.9 22.1 50 8.0 W 19 30 10 16 1006.6 1005.0 0.2
24/08:30pm 34.2 36.0 22.6 50 8.0 NW 17 28 9 15 1005.4 1003.8 0.2
24/08:00pm 35.1 36.5 22.8 49 8.6 NNW 20 30 11 16 1005.0 1003.4 0.2
24/07:30pm 35.7 37.1 22.6 46 9.1 NNW 19 26 10 14 1004.8 1003.2 0.2
24/07:00pm 36.1 38.3 22.6 45 9.4 NW 15 28 8 15 1004.4 1002.8 0.2
24/06:30pm 36.6 37.5 22.7 44 9.7 WNW 22 35 12 19 1004.0 1002.4 0.2
24/06:00pm 38.6 39.4 21.3 36 11.9 NW 19 28 10 15 1003.6 1002.0 0.2
24/05:30pm 39.7 40.2 20.9 33 12.9 NNW 19 30 10 16 1003.4 1001.8 0.2
24/05:00pm 40.7 40.9 20.2 30 14.0 NNW 19 28 10 15 1003.0 1001.4 0.2
24/04:30pm 41.4 42.0 18.6 26 15.3 NNW 13 20 7 11 1003.1 1001.5 0.2
24/04:00pm 42.1 43.0 16.7 23 16.7 NE 7 17 4 9 1003.1 1001.5 0.2
24/03:30pm 42.1 42.3 12.9 18 18.2 S 4 6 2 3 1003.3 1001.7 0.2
24/03:00pm 41.8 41.5 12.6 18 18.2 SW 6 9 3 5 1003.6 1002.0 0.2
24/02:30pm 41.3 40.2 13.0 19 17.6 SW 11 17 6 9 1004.0 1002.4 0.2
24/02:00pm 41.7 40.8 12.5 18 18.1 NNW 9 15 5 8 1004.1 1002.5 0.2
24/01:30pm 42.2 39.3 11.1 16 18.9 NNW 17 26 9 14 1004.1 1002.5 0.2
24/01:00pm 41.5 42.0 14.0 20 17.4 W 4 9 2 5 1004.4 1002.8 0.2
24/12:30pm 40.0 39.8 13.5 21 16.5 S 7 13 4 7 1004.8 1003.2 0.2
24/12:00pm 40.1 40.3 14.3 22 16.3 S 6 9 3 5 1005.1 1003.5 0.2
24/11:30am 40.0 40.0 13.5 21 16.5 SSE 6 11 3 6 1005.1 1003.5 0.2
24/11:00am 39.7 39.6 14.0 22 16.2 E 7 15 4 8 1005.1 1003.5 0.2
24/10:30am 38.1 38.7 15.8 26 14.3 ENE 7 17 4 9 1005.8 1004.3 0.2
24/10:00am 36.6 36.8 15.7 29 13.3 ENE 9 15 5 8 1006.4 1004.8 0.2
24/09:30am 34.7 34.3 16.1 33 11.8 SW 13 24 7 13 1006.5 1004.9 0.0
24/09:00am 32.6 31.4 17.6 40 9.7 SW 20 30 11 16 1006.3 1004.7 2.2
24/08:30am 33.2 33.5 17.8 40 10.0 SSW 13 20 7 11 1006.4 1004.8 2.2
24/08:00am 32.3 31.7 16.6 39 10.0 SSE 15 22 8 12 1006.0 1004.5 2.2
24/07:30am 30.6 30.6 18.0 47 8.1 SSW 15 22 8 12 1006.1 1004.6 2.2
24/07:00am 28.8 31.5 18.6 54 6.6 SSE 2 7 1 4 1006.7 1005.1 2.2
24/06:30am 28.7 27.3 17.9 52 6.9 SE 22 37 12 20 1008.1 1006.5 2.2
24/06:00am 27.4 24.2 19.5 62 5.2 SSE 35 48 19 26 1008.7 1007.1 2.2
24/05:30am 28.2 26.5 19.7 60 5.6 SE 28 43 15 23 1008.8 1007.2 2.0
24/05:00am 27.7 27.8 20.3 64 4.9 SE 20 37 11 20 1008.6 1007.0 2.0
24/04:30am 26.4 28.1 21.6 75 3.2 SE 15 19 8 10 1008.9 1007.3 2.0
24/04:00am 28.1 25.5 19.6 60 5.6 SE 32 50 17 27 1008.7 1007.1 1.8
24/03:50am 28.5 28.1 20.2 60 5.5 ESE 22 43 12 23 1008.6 1007.0 1.8
24/03:30am 27.8 31.9 22.3 72 3.7 WSW 4 7 2 4 1007.0 1005.4 1.8
24/03:00am 26.9 27.6 21.2 71 3.8 SSW 19 26 10 14 1006.5 1004.9 1.8
24/02:30am 29.9 27.5 19.9 55 6.6 S 32 54 17 29 1006.3 1004.7 0.0
24/02:23am 32.9 34.6 21.7 51 7.6 S 15 54 8 29 1005.8 1004.3 0.0
24/02:00am 31.9 37.9 24.2 63 5.4 CALM 0 0 0 0 1004.7 1003.1 0.0
24/01:30am 32.0 36.8 24.1 63 5.5 NE 6 11 3 6 1004.8 1003.2 0.0
24/01:00am 32.5 36.8 23.7 59 6.2 NE 7 9 4 5 1004.8 1003.2 0.0
24/12:30am 33.0 36.7 23.3 56 6.8 N 9 13 5 7 1004.6 1003.0 0.0
24/12:00am 33.4 38.1 23.4 55 7.0 NE 4 6 2 3 1004.5 1002.9 0.0
 
Date/Time
WST
Temp
°C
App
Temp
°C
Dew
Point
Rel
Hum
%
Delta-T
°C
Wind Press
QNH
hPa
Press
MSL
hPa
Rain
since 9 am
mm
Dir
 
Spd
km/h
Gust
km/h
Spd
kts
Gust
kts
23/11:30pm 34.0 38.7 23.4 54 7.4 E 4 6 2 3 1005.2 1003.6 0.0
23/11:00pm 34.1 38.5 23.5 54 7.4 NE 6 9 3 5 1005.0 1003.4 0.0
23/10:30pm 34.3 38.6 23.6 53 7.5 NNW 7 11 4 6 1005.0 1003.4 0.0
23/10:00pm 34.6 38.0 23.3 52 7.9 N 11 15 6 8 1004.4 1002.8 0.0
23/09:30pm 35.3 38.9 23.0 49 8.6 N 9 13 5 7 1004.6 1003.0 0.0
23/09:00pm 36.3 38.4 21.7 42 10.1 NNW 13 19 7 10 1004.3 1002.7 0.0
23/08:30pm 37.4 38.3 19.3 34 12.1 NNW 13 22 7 12 1004.2 1002.6 0.0
23/08:00pm 38.2 37.9 16.5 28 14.1 N 13 19 7 10 1004.0 1002.4 0.0
23/07:30pm 39.0 37.8 16.0 26 14.8 NNW 17 24 9 13 1003.5 1001.9 0.0
23/07:00pm 39.8 38.3 17.8 27 14.6 NNW 22 32 12 17 1002.8 1001.2 0.0
23/06:30pm 41.4 38.4 14.7 21 17.0 N 24 37 13 20 1002.2 1000.6 0.0
23/06:00pm 42.6 39.6 14.9 20 17.8 NNW 24 37 13 20 1001.3 999.7 0.0
23/05:30pm 43.5 39.8 14.0 18 18.8 NNW 26 39 14 21 1000.8 999.2 0.0
23/05:00pm 46.9 43.6 2.6 7 24.6 NE 9 17 5 9 1000.6 998.9 0.0
23/04:30pm 47.6 44.8 3.1 7 24.8 ESE 7 13 4 7 1000.4 998.8 0.0
23/04:00pm 48.2 44.7 1.4 6 25.7 NNW 9 17 5 9 1000.4 998.8 0.0
23/03:30pm 47.9 44.0 1.2 6 25.4 ENE 11 20 6 11 1001.0 999.4 0.0
23/03:00pm 48.2 45.3 1.4 6 25.7 NE 6 13 3 7 1001.2 999.6 0.0
23/02:30pm 48.3 45.6 3.6 7 25.2 ENE 7 15 4 8 1001.7 1000.1 0.0
23/02:00pm 47.8 42.7 3.3 7 25.0 SE 19 32 10 17 1001.9 1000.3 0.0
23/01:30pm 48.4 45.3 3.7 7 25.2 E 9 20 5 11 1002.0 1000.4 0.0
23/01:00pm 47.8 43.1 3.3 7 25.0 E 17 28 9 15 1002.4 1000.8 0.0
23/12:30pm 47.1 42.3 2.8 7 24.5 E 17 32 9 17 1002.7 1001.1 0.0
23/12:00pm 47.5 42.8 5.0 8 24.4 ESE 19 41 10 22 1003.0 1001.4 0.0
23/11:30am 46.8 42.3 6.2 9 23.5 ESE 19 32 10 17 1003.5 1001.9 0.0
23/11:00am 45.7 40.0 6.9 10 22.7 ESE 26 43 14 23 1004.0 1002.4 0.0
23/10:30am 44.7 38.8 7.5 11 21.8 SE 28 46 15 25 1004.3 1002.7 0.0
23/10:00am 44.1 38.0 8.3 12 21.2 SE 30 43 16 23 1004.6 1003.0 0.0
23/09:30am 43.4 37.5 9.0 13 20.4 SSE 30 44 16 24 1004.8 1003.2 0.0
23/09:06am 42.8 35.8 8.5 13 20.2 SSE 35 56 19 30 1004.9 1003.3 0.0
23/09:00am 42.3 35.1 9.2 14 19.7 SSE 37 50 20 27 1005.0 1003.4 0.0
23/08:30am 41.4 34.3 9.6 15 18.9 SSE 37 50 20 27 1005.1 1003.5 0.0
23/08:00am 40.2 35.7 11.3 18 17.6 SSE 26 37 14 20 1005.3 1003.7 0.0
23/07:30am 38.3 34.4 12.1 21 15.9 SSE 24 39 13 21 1005.3 1003.7 0.0
23/07:00am 36.2 33.3 13.0 24 14.2 S 20 32 11 17 1005.4 1003.8 0.0
23/06:30am 34.0 32.8 14.0 30 12.3 SSW 13 19 7 10 1005.3 1003.7 0.0
23/06:00am 33.4 31.3 13.5 30 12.2 SSW 17 28 9 15 1005.0 1003.4 0.0
23/05:30am 32.7 31.8 13.8 31 11.5 SW 11 19 6 10 1004.7 1003.1 0.0
23/05:00am 33.5 30.8 13.5 29 12.2 SW 20 32 11 17 1004.6 1003.0 0.0
23/04:30am 33.8 30.4 13.8 30 12.3 SW 24 35 13 19 1004.1 1002.5 0.0
23/04:00am 33.5 30.6 14.0 30 12.0 SW 22 32 12 17 1004.1 1002.5 0.0
23/03:30am 33.7 30.1 14.2 30 12.0 SW 26 37 14 20 1004.3 1002.7 0.0
23/03:00am 33.9 30.0 14.4 31 12.1 SW 28 41 15 22 1004.3 1002.7 0.0
23/02:55am 34.0 29.7 14.5 31 12.1 SW 30 48 16 26 1004.3 1002.7 0.0
23/02:30am 34.3 29.5 14.7 30 12.2 SW 33 50 18 27 1004.2 1002.6 0.0
23/02:00am 34.8 30.2 14.7 30 12.6 SW 32 44 17 24 1004.5 1002.9 0.0
23/01:33am 35.2 30.9 14.5 29 12.9 SW 30 48 16 26 1004.4 1002.8 0.0
23/01:30am 35.3 30.5 14.6 29 12.9 SW 33 46 18 25 1004.3 1002.7 0.0
23/01:00am 35.9 31.5 14.0 27 13.6 SW 30 44 16 24 1004.6 1003.0 0.0
23/12:30am 36.3 32.4 14.3 27 13.7 WSW 28 39 15 21 1004.7 1003.1 0.0
23/12:00am 36.7 34.2 15.2 27 13.6 WSW 22 32 12 17 1004.9 1003.3 0.0
 
Date/Time
WST
Temp
°C
App
Temp
°C
Dew
Point
Rel
Hum
%
Delta-T
°C
Wind Press
QNH
hPa
Press
MSL
hPa
Rain
since 9 am
mm
Dir
 
Spd
km/h
Gust
km/h
Spd
kts
Gust
kts
22/11:30pm 35.9 36.1 17.6 34 11.9 WSW 13 22 7 12 1005.1 1003.5 0.0
22/11:00pm 35.7 36.0 16.9 32 12.2 SW 11 19 6 10 1005.3 1003.7 0.0
22/10:30pm 37.0 37.7 17.1 31 12.9 WSW 9 17 5 9 1004.9 1003.3 0.0
22/10:00pm 37.4 36.8 18.4 32 12.6 W 19 30 10 16 1004.9 1003.3 0.0
22/09:30pm 38.5 38.5 16.2 27 14.4 NW 11 19 6 10 1004.7 1003.1 0.0
22/09:00pm 39.3 37.7 12.9 20 16.4 WNW 13 20 7 11 1004.4 1002.8 0.0
22/08:30pm 39.0 38.3 12.0 20 16.5 W 7 13 4 7 1004.0 1002.4 0.0
22/08:00pm 39.8 38.7 11.8 19 17.1 W 9 13 5 7 1004.1 1002.5 0.0
22/07:30pm 39.4 38.5 10.7 18 17.2 WSW 6 9 3 5 1003.6 1002.0 0.0
22/07:00pm 41.9 40.0 6.7 12 20.2 SW 6 11 3 6 1003.4 1001.8 0.0
22/06:30pm 42.9 40.4 9.7 14 19.9 W 13 22 7 12 1003.2 1001.6 0.0

Other Formats:

Comma delimited format used in spreadsheet applications
http://www.bom.gov.au/fwo/IDW60801/IDW60801.95317.axf

JavaScript Object Notation format (JSON) in row-major order
http://www.bom.gov.au/fwo/IDW60801/IDW60801.95317.json